Time;durP1;ratioP1;P1;durP2;ratioP2;P2;SDS_P1;SDS_P2;PMS_P1;PMS_P2;Temp;Humidity;BMP_temperature;BMP_pressure;BME280_temperature;BME280_humidity;BME280_pressure;Samples;Min_cycle;Max_cycle;Signal;HPM_P1;HPM_P2
2022/10/11 00:00:53;;;;;;;;;4.75;3.75;;;;;17.91;49.13;101844.78;4961287;28;45745;-59
2022/10/11 00:03:19;;;;;;;;;2.50;2.00;;;;;17.89;49.22;101848.38;4962465;28;45426;-59
2022/10/11 00:05:44;;;;;;;;;4.75;4.00;;;;;17.87;49.25;101848.41;4962127;28;46165;-59
2022/10/11 00:08:11;;;;;;;;;4.50;3.25;;;;;17.82;49.23;101845.91;4962306;28;45315;-59
2022/10/11 00:10:37;;;;;;;;;3.00;2.00;;;;;17.80;49.13;101847.72;4962544;28;45259;-58
2022/10/11 00:13:04;;;;;;;;;2.50;2.50;;;;;17.80;49.12;101861.00;4964423;28;45361;-59
2022/10/11 00:15:29;;;;;;;;;5.50;4.00;;;;;17.78;48.91;101854.00;4962043;28;45224;-59
2022/10/11 00:17:55;;;;;;;;;4.00;2.25;;;;;17.76;49.01;101859.34;4961965;28;46504;-58
2022/10/11 00:20:21;;;;;;;;;3.00;3.00;;;;;17.74;48.90;101855.84;4962146;28;45481;-59
2022/10/11 00:22:48;;;;;;;;;2.00;1.00;;;;;17.71;48.95;101848.84;4962017;28;45553;-58
2022/10/11 00:25:14;;;;;;;;;1.00;1.00;;;;;17.69;48.93;101847.13;4962021;28;45434;-58
2022/10/11 00:27:39;;;;;;;;;3.75;2.25;;;;;17.67;48.88;101855.16;4961895;28;45318;-58
2022/10/11 00:30:05;;;;;;;;;1.75;1.25;;;;;17.63;49.22;101856.13;4961912;28;45461;-58
2022/10/11 00:32:33;;;;;;;;;3.00;1.25;;;;;17.63;48.89;101863.22;4961897;28;45477;-60
2022/10/11 00:35:03;;;;;;;;;1.00;1.00;;;;;17.59;49.06;101865.09;4959169;28;47870;-58
2022/10/11 00:37:29;;;;;;;;;3.25;2.25;;;;;17.57;48.74;101866.03;4961729;28;45593;-59
2022/10/11 00:39:54;;;;;;;;;2.00;2.00;;;;;17.55;48.87;101869.59;4960649;28;45527;-58
2022/10/11 00:42:20;;;;;;;;;2.25;2.25;;;;;17.52;48.70;101864.38;4961597;28;45390;-58
2022/10/11 00:44:47;;;;;;;;;4.50;1.50;;;;;17.50;48.91;101874.19;4961623;28;45330;-60
2022/10/11 00:47:23;;;;;;;;;4.25;2.00;;;;;17.45;48.73;101873.41;4961616;28;45529;-59
2022/10/11 00:49:55;;;;;;;;;6.00;2.00;;;;;17.45;48.78;101875.22;4961810;28;45453;-58
2022/10/11 00:52:35;;;;;;;;;1.25;1.00;;;;;17.42;48.57;101880.59;4961707;28;45404;-58
2022/10/11 00:55:06;;;;;;;;;1.75;1.75;;;;;17.38;49.00;101870.06;4961520;28;46303;-58
2022/10/11 00:57:35;;;;;;;;;3.00;2.00;;;;;17.36;48.50;101873.66;4961282;28;45235;-58
2022/10/11 01:00:08;;;;;;;;;2.50;1.00;;;;;17.33;48.72;101879.03;4961400;28;45310;-58
2022/10/11 01:02:33;;;;;;;;;2.50;1.75;;;;;17.30;48.47;101876.47;4960375;28;45233;-58
2022/10/11 01:04:59;;;;;;;;;2.00;2.00;;;;;17.29;48.69;101872.91;4960249;28;45979;-59
2022/10/11 01:07:29;;;;;;;;;3.50;1.00;;;;;17.27;48.77;101871.22;4960965;28;45451;-58
2022/10/11 01:09:55;;;;;;;;;3.50;1.75;;;;;17.23;48.79;101875.72;4961483;28;45425;-58
2022/10/11 01:12:25;;;;;;;;;2.50;1.75;;;;;17.22;48.57;101860.72;4963031;28;45343;-58
2022/10/11 01:15:09;;;;;;;;;5.00;2.00;;;;;17.20;48.52;101871.34;4960882;28;46760;-59
2022/10/11 01:17:48;;;;;;;;;6.00;2.25;;;;;17.18;48.54;101867.00;4961358;28;45253;-59
2022/10/11 01:20:16;;;;;;;;;2.25;1.00;;;;;17.14;48.71;101871.50;4956722;28;45363;-58
2022/10/11 01:22:44;;;;;;;;;1.25;1.25;;;;;17.12;48.65;101870.69;4955344;28;45333;-58
2022/10/11 01:25:35;;;;;;;;;2.75;2.00;;;;;17.10;48.35;101867.19;4961035;28;45264;-58
2022/10/11 01:28:18;;;;;;;;;4.00;1.00;;;;;17.07;48.47;101872.56;4960978;28;45356;-58
2022/10/11 01:30:43;;;;;;;;;2.00;2.00;;;;;17.04;48.64;101872.63;4959688;28;45512;-58
2022/10/11 01:33:17;;;;;;;;;2.25;1.25;;;;;16.99;48.34;101861.25;4959727;28;45584;-58
2022/10/11 01:35:47;;;;;;;;;1.50;1.00;;;;;16.99;48.47;101867.44;4960918;28;46274;-59
2022/10/11 01:38:31;;;;;;;;;2.50;1.75;;;;;16.97;48.42;101871.91;4961013;28;45377;-59
2022/10/11 01:41:23;;;;;;;;;1.50;1.50;;;;;16.93;48.59;101861.38;4961027;28;45312;-59
2022/10/11 01:43:54;;;;;;;;;3.50;1.75;;;;;16.92;48.43;101867.59;4960108;28;45620;-58
2022/10/11 01:46:20;;;;;;;;;2.50;1.75;;;;;16.87;48.61;101867.69;4960420;28;46208;-59
2022/10/11 01:48:53;;;;;;;;;5.50;2.00;;;;;16.86;48.38;101872.09;4960749;28;45259;-59
2022/10/11 01:51:26;;;;;;;;;3.50;2.50;;;;;16.82;48.44;101872.25;4961099;28;45302;-59
2022/10/11 01:53:51;;;;;;;;;5.00;2.00;;;;;16.81;48.73;101868.69;4959556;28;45268;-59
2022/10/11 01:56:34;;;;;;;;;5.00;5.00;;;;;16.79;48.30;101870.53;4960719;28;45451;-59
2022/10/11 01:59:29;;;;;;;;;3.75;1.50;;;;;16.75;48.23;101866.16;4960393;28;45421;-59
2022/10/11 02:02:01;;;;;;;;;3.25;3.25;;;;;16.72;48.42;101871.56;4960763;28;45287;-59
2022/10/11 02:04:38;;;;;;;;;2.25;2.00;;;;;16.69;48.32;101875.16;4960638;28;45208;-59
2022/10/11 02:07:19;;;;;;;;;3.00;2.00;;;;;16.66;48.31;101874.34;4960308;28;46488;-59
2022/10/11 02:09:51;;;;;;;;;5.00;1.25;;;;;16.59;48.21;101870.97;4959343;28;45263;-58
2022/10/11 02:12:24;;;;;;;;;1.00;1.00;;;;;16.61;48.12;101874.44;4963525;28;45508;-59
2022/10/11 02:14:54;;;;;;;;;2.75;2.75;;;;;16.60;48.35;101871.81;4958991;28;45340;-59
2022/10/11 02:17:26;;;;;;;;;2.00;1.50;;;;;16.57;48.34;101865.66;4960383;28;46200;-59
2022/10/11 02:19:55;;;;;;;;;2.50;2.50;;;;;16.55;48.30;101866.59;4960286;28;45422;-58
2022/10/11 02:22:25;;;;;;;;;4.00;3.00;;;;;16.53;48.47;101869.28;4960499;28;45247;-59
2022/10/11 02:24:54;;;;;;;;;6.50;3.00;;;;;16.52;48.06;101866.69;4960368;28;45429;-59
2022/10/11 02:27:24;;;;;;;;;1.00;1.00;;;;;16.50;48.38;101869.38;4960070;28;45244;-59
2022/10/11 02:29:53;;;;;;;;;2.00;1.00;;;;;16.44;48.44;101869.50;4959917;28;45329;-59
2022/10/11 02:32:20;;;;;;;;;0.25;0.25;;;;;16.45;48.15;101870.38;4960529;28;45252;-59
2022/10/11 02:34:52;;;;;;;;;1.25;1.00;;;;;16.42;48.37;101877.47;4960088;28;45388;-59
2022/10/11 02:37:46;;;;;;;;;2.00;1.00;;;;;16.40;48.10;101879.28;4960162;28;45491;-59
2022/10/11 02:40:23;;;;;;;;;3.25;0.75;;;;;16.36;48.00;101872.31;4960338;28;45306;-59
2022/10/11 02:43:04;;;;;;;;;2.75;1.50;;;;;16.34;48.26;101882.06;4960012;28;45275;-59
2022/10/11 02:45:35;;;;;;;;;4.00;2.00;;;;;16.32;48.30;101880.34;4959769;28;45532;-59
2022/10/11 02:48:02;;;;;;;;;1.00;0.75;;;;;16.30;48.00;101877.75;4960000;28;46187;-59
2022/10/11 02:50:27;;;;;;;;;2.25;1.00;;;;;16.28;48.09;101879.53;4960003;28;45406;-59
2022/10/11 02:52:53;;;;;;;;;9.00;3.50;;;;;16.23;48.36;101876.97;4960199;28;45355;-59
2022/10/11 02:55:18;;;;;;;;;2.00;1.75;;;;;16.22;48.03;101877.88;4959999;28;45409;-59
2022/10/11 02:57:43;;;;;;;;;3.00;1.75;;;;;16.20;48.41;101877.03;4960407;28;46233;-59
2022/10/11 03:00:10;;;;;;;;;1.75;1.75;;;;;16.17;48.06;101878.88;4978091;28;45290;-59
2022/10/11 03:02:35;;;;;;;;;8.25;1.75;;;;;16.16;48.19;101878.03;4963550;28;45309;-59
2022/10/11 03:05:01;;;;;;;;;1.00;1.00;;;;;16.14;48.34;101882.47;4963029;28;45354;-59
2022/10/11 03:07:26;;;;;;;;;2.00;1.50;;;;;16.12;48.40;101878.97;4962945;28;45321;-59
2022/10/11 03:09:51;;;;;;;;;3.00;2.00;;;;;16.09;48.46;101879.91;4963243;28;45211;-59
2022/10/11 03:12:17;;;;;;;;;2.25;1.50;;;;;16.07;47.97;101886.13;4965732;28;45274;-59
2022/10/11 03:14:42;;;;;;;;;4.25;1.00;;;;;16.05;48.05;101885.28;4962997;28;45617;-59
2022/10/11 03:17:07;;;;;;;;;5.25;2.50;;;;;16.03;48.50;101881.81;4963121;28;45220;-59
2022/10/11 03:19:32;;;;;;;;;2.50;1.25;;;;;16.00;48.07;101885.38;4962961;28;45212;-59
2022/10/11 03:21:58;;;;;;;;;1.50;1.50;;;;;15.98;48.32;101884.53;4963514;28;45421;-59
2022/10/11 03:24:24;;;;;;;;;2.50;1.75;;;;;15.92;48.63;101882.00;4962972;28;45552;-59
2022/10/11 03:26:49;;;;;;;;;2.00;1.75;;;;;15.93;48.53;101894.34;4961629;28;47204;-59
2022/10/11 03:29:15;;;;;;;;;3.75;1.75;;;;;15.91;48.14;101896.13;4961287;28;45322;-59
2022/10/11 03:31:40;;;;;;;;;3.50;0.75;;;;;15.89;48.32;101893.53;4963159;28;45235;-59
2022/10/11 03:34:05;;;;;;;;;2.00;2.00;;;;;15.86;47.83;101892.69;4962980;28;45224;-59
2022/10/11 03:36:31;;;;;;;;;1.50;1.50;;;;;15.82;48.27;101891.88;4962776;28;45300;-59
2022/10/11 03:38:56;;;;;;;;;6.75;2.00;;;;;15.82;48.05;101899.81;4962938;28;45219;-59
2022/10/11 03:41:21;;;;;;;;;2.25;1.50;;;;;15.80;48.00;101900.72;4963090;28;45346;-59
2022/10/11 03:43:47;;;;;;;;;3.25;1.50;;;;;15.77;48.04;101905.19;4962286;28;45414;-59
2022/10/11 03:46:12;;;;;;;;;2.75;2.50;;;;;15.75;48.37;101899.03;4962671;28;45447;-59
2022/10/11 03:48:38;;;;;;;;;12.75;12.00;;;;;15.69;48.00;101888.53;4961335;28;45346;-59
2022/10/11 03:51:03;;;;;;;;;1.75;1.75;;;;;15.70;48.53;101897.38;4962902;28;45500;-59
2022/10/11 03:53:28;;;;;;;;;3.75;1.75;;;;;15.67;48.14;101900.06;4962714;28;45488;-58
2022/10/11 03:55:55;;;;;;;;;7.75;1.75;;;;;15.66;48.49;101908.91;4962428;28;45985;-58
2022/10/11 03:58:22;;;;;;;;;4.25;3.25;;;;;15.63;48.00;101901.91;4962569;28;45442;-58
2022/10/11 04:00:48;;;;;;;;;3.25;1.75;;;;;15.61;48.05;101903.72;4962400;28;45255;-58
2022/10/11 04:03:13;;;;;;;;;3.50;2.50;;;;;15.60;48.21;101916.06;4962495;28;45232;-58
2022/10/11 04:05:38;;;;;;;;;5.00;1.50;;;;;15.58;48.43;101914.34;4962031;28;46124;-58
2022/10/11 04:08:04;;;;;;;;;2.75;1.75;;;;;15.55;48.50;101915.28;4962535;28;45155;-58
2022/10/11 04:10:30;;;;;;;;;2.25;0.75;;;;;15.54;47.94;101926.75;4962275;28;45505;-58
2022/10/11 04:12:56;;;;;;;;;3.00;1.50;;;;;15.50;48.11;101914.47;4965201;28;45235;-57
2022/10/11 04:15:22;;;;;;;;;2.00;1.50;;;;;15.51;47.98;101920.63;4961808;28;45420;-58
2022/10/11 04:17:47;;;;;;;;;1.00;1.00;;;;;15.48;48.15;101918.06;4962256;28;45451;-58
2022/10/11 04:20:13;;;;;;;;;2.75;2.00;;;;;15.47;47.95;101917.19;4962208;28;45469;-58
2022/10/11 04:22:38;;;;;;;;;4.00;1.25;;;;;15.46;48.48;101923.38;4962223;28;45322;-58
2022/10/11 04:25:05;;;;;;;;;4.50;1.00;;;;;15.44;48.08;101922.53;4962076;28;45311;-58
2022/10/11 04:27:31;;;;;;;;;4.75;1.50;;;;;15.43;48.03;101926.06;4962218;28;45368;-58
2022/10/11 04:29:56;;;;;;;;;4.00;3.00;;;;;15.42;48.00;101929.59;4961855;28;45398;-58
2022/10/11 04:32:21;;;;;;;;;4.50;2.50;;;;;15.41;48.53;101927.88;4962134;28;45648;-58
2022/10/11 04:34:47;;;;;;;;;1.50;1.50;;;;;15.38;48.39;101927.91;4961869;28;46204;-57
2022/10/11 04:37:12;;;;;;;;;2.00;1.00;;;;;15.37;48.49;101926.16;4961843;28;45512;-57
2022/10/11 04:39:37;;;;;;;;;1.50;1.25;;;;;15.33;48.14;101921.81;4961911;28;45494;-57
2022/10/11 04:42:03;;;;;;;;;3.50;2.50;;;;;15.34;48.20;101929.72;4962045;28;45215;-58
2022/10/11 04:44:29;;;;;;;;;2.25;2.00;;;;;15.33;48.04;101927.97;4961198;28;45220;-57
2022/10/11 04:46:54;;;;;;;;;5.25;2.25;;;;;15.32;48.35;101928.00;4961833;28;45256;-58
2022/10/11 04:49:20;;;;;;;;;0.75;0.75;;;;;15.30;48.12;101930.69;4961935;28;45291;-58
2022/10/11 04:51:45;;;;;;;;;1.25;1.25;;;;;15.27;48.32;101931.59;4961822;28;45220;-58
2022/10/11 04:54:10;;;;;;;;;2.00;2.00;;;;;15.27;47.99;101931.59;4961639;28;45315;-58
2022/10/11 04:56:36;;;;;;;;;4.25;2.00;;;;;15.26;47.98;101935.13;4976372;28;45275;-58
2022/10/11 04:59:01;;;;;;;;;3.00;2.00;;;;;15.23;48.10;101924.59;4961273;28;45198;-58
2022/10/11 05:01:27;;;;;;;;;4.00;3.00;;;;;15.20;48.19;101929.94;4961675;28;45449;-58
2022/10/11 05:03:52;;;;;;;;;4.50;1.00;;;;;15.21;48.54;101934.34;4961260;28;45623;-57
2022/10/11 05:06:17;;;;;;;;;4.00;1.75;;;;;15.17;48.17;101935.28;4961168;28;45489;-58
2022/10/11 05:08:43;;;;;;;;;2.00;2.00;;;;;15.15;48.28;101934.44;4976336;28;45493;-58
2022/10/11 05:11:12;;;;;;;;;2.50;1.50;;;;;15.15;48.56;101929.13;4962465;28;45394;-57
2022/10/11 05:13:37;;;;;;;;;1.00;1.00;;;;;15.12;48.47;101934.47;4961621;28;45324;-57
2022/10/11 05:16:03;;;;;;;;;3.00;2.00;;;;;15.13;48.46;101941.50;4959875;28;45271;-58
2022/10/11 05:18:29;;;;;;;;;3.00;1.50;;;;;15.13;48.43;101943.28;4961217;28;45227;-58
2022/10/11 05:21:03;;;;;;;;;3.00;3.00;;;;;15.11;48.03;101944.19;4960343;28;45255;-58
2022/10/11 05:23:30;;;;;;;;;3.00;3.00;;;;;15.09;48.19;101942.44;4960889;28;45487;-58
2022/10/11 05:25:57;;;;;;;;;9.50;5.25;;;;;15.08;48.53;101938.03;4960907;28;45492;-58
2022/10/11 05:28:22;;;;;;;;;3.25;2.50;;;;;15.07;48.14;101936.31;4961372;28;45467;-58
2022/10/11 05:30:47;;;;;;;;;9.25;8.50;;;;;15.07;48.43;101938.97;4960813;28;45434;-58
2022/10/11 05:33:13;;;;;;;;;9.00;6.25;;;;;15.06;47.98;101945.16;4961177;28;46199;-59
2022/10/11 05:35:38;;;;;;;;;14.00;12.00;;;;;15.05;48.43;101946.03;4961186;28;45333;-58
2022/10/11 05:38:03;;;;;;;;;11.50;9.50;;;;;15.04;48.27;101941.63;4960986;28;45746;-58
2022/10/11 05:40:29;;;;;;;;;5.00;4.00;;;;;15.02;48.39;101940.78;4960836;28;45321;-59
2022/10/11 05:42:54;;;;;;;;;3.00;2.50;;;;;15.02;48.14;101946.06;4960738;28;45366;-58
2022/10/11 05:45:19;;;;;;;;;3.75;3.00;;;;;15.00;47.87;101939.94;4960646;28;45280;-59
2022/10/11 05:47:45;;;;;;;;;3.25;3.00;;;;;15.00;47.89;101945.25;4960948;28;45302;-59
2022/10/11 05:50:10;;;;;;;;;4.00;2.00;;;;;14.97;47.96;101948.81;4960850;28;45717;-59
2022/10/11 05:52:36;;;;;;;;;3.25;1.25;;;;;14.97;48.16;101959.38;4960690;28;45514;-58
2022/10/11 05:55:02;;;;;;;;;3.00;1.75;;;;;14.95;48.22;101955.88;4960856;28;45231;-58
2022/10/11 05:57:28;;;;;;;;;4.00;2.00;;;;;14.94;48.31;101955.00;4960627;28;45482;-59
2022/10/11 05:59:53;;;;;;;;;4.75;3.00;;;;;14.94;47.94;101952.38;4960593;28;45178;-59
2022/10/11 06:02:19;;;;;;;;;3.00;1.00;;;;;14.92;47.98;101950.63;4960557;28;46224;-58
2022/10/11 06:04:44;;;;;;;;;2.00;2.00;;;;;14.92;48.17;101948.84;4960660;28;45212;-59
2022/10/11 06:07:10;;;;;;;;;4.00;1.75;;;;;14.90;47.88;101945.34;4954876;28;45884;-59
2022/10/11 06:09:35;;;;;;;;;2.50;2.50;;;;;14.92;48.42;101945.34;4959679;28;47292;-59
2022/10/11 06:12:00;;;;;;;;;3.50;2.75;;;;;14.91;48.16;101948.88;4959139;28;45534;-59
2022/10/11 06:14:26;;;;;;;;;3.00;2.25;;;;;14.90;48.43;101940.03;4960176;28;45235;-60
2022/10/11 06:16:51;;;;;;;;;6.75;3.25;;;;;14.90;47.85;101952.41;4959048;28;45509;-59
2022/10/11 06:19:17;;;;;;;;;1.50;1.50;;;;;14.87;48.07;101944.53;4958920;28;45584;-60
2022/10/11 06:21:44;;;;;;;;;5.00;2.25;;;;;14.89;48.15;101962.13;4958992;28;45307;-60
2022/10/11 06:24:11;;;;;;;;;14.25;14.25;;;;;14.89;48.02;101954.19;4959094;28;45307;-59
2022/10/11 06:26:36;;;;;;;;;7.25;4.00;;;;;14.90;48.46;101965.66;4960355;28;45407;-59
2022/10/11 06:29:02;;;;;;;;;2.75;2.25;;;;;14.89;47.87;101964.78;4971667;28;45564;-59
2022/10/11 06:31:27;;;;;;;;;3.00;3.00;;;;;14.87;48.45;101960.41;4955243;28;45531;-61
2022/10/11 06:33:53;;;;;;;;;3.50;2.00;;;;;14.87;48.15;101974.50;4963579;28;45369;-58
2022/10/11 06:36:18;;;;;;;;;3.25;2.75;;;;;14.87;48.43;101971.84;4963498;28;45791;-59
2022/10/11 06:38:44;;;;;;;;;3.25;1.75;;;;;14.86;47.81;101972.75;4963495;28;45453;-60
2022/10/11 06:41:14;;;;;;;;;4.00;3.00;;;;;14.86;48.21;101972.75;4963697;28;46027;-59
2022/10/11 06:43:40;;;;;;;;;7.25;3.75;;;;;14.83;48.40;101969.25;4963143;28;45700;-59
2022/10/11 06:46:05;;;;;;;;;8.75;5.75;;;;;14.86;48.23;101974.53;4963381;28;45314;-59
2022/10/11 06:48:31;;;;;;;;;6.25;4.50;;;;;14.84;48.01;101971.00;4963397;28;45396;-60
2022/10/11 06:50:59;;;;;;;;;7.00;4.25;;;;;14.83;48.45;101971.91;4963449;28;45290;-60
2022/10/11 06:53:25;;;;;;;;;5.25;3.00;;;;;14.85;47.85;101980.72;4963653;28;45520;-60
2022/10/11 06:55:50;;;;;;;;;6.50;5.00;;;;;14.84;48.14;101978.94;4963305;28;45248;-60
2022/10/11 06:58:16;;;;;;;;;6.00;3.00;;;;;14.85;48.00;101986.00;4963547;28;45211;-59
2022/10/11 07:00:41;;;;;;;;;3.00;3.00;;;;;14.83;48.13;101985.13;4963110;28;45363;-60
2022/10/11 07:03:07;;;;;;;;;4.25;3.25;;;;;14.82;48.38;101984.28;4963343;28;45515;-60
2022/10/11 07:05:34;;;;;;;;;8.00;4.00;;;;;14.82;48.25;101980.72;4963169;28;45431;-60
2022/10/11 07:08:00;;;;;;;;;6.00;3.00;;;;;14.81;48.22;101985.16;4963088;28;45393;-60
2022/10/11 07:10:26;;;;;;;;;1.50;1.50;;;;;14.81;47.75;101990.44;4962995;28;45361;-60
2022/10/11 07:12:51;;;;;;;;;2.50;2.50;;;;;14.80;47.80;101988.69;4962981;28;45355;-60
2022/10/11 07:15:17;;;;;;;;;1.75;1.00;;;;;14.77;48.05;101988.75;4962878;28;45347;-60
2022/10/11 07:17:42;;;;;;;;;3.75;3.75;;;;;14.78;48.24;101996.66;4963419;28;45162;-60
2022/10/11 07:20:08;;;;;;;;;4.25;3.00;;;;;14.77;48.15;101996.69;4962820;28;45996;-60
2022/10/11 07:22:33;;;;;;;;;2.00;1.75;;;;;14.78;48.03;102001.09;4962978;28;45332;-60
2022/10/11 07:24:59;;;;;;;;;4.00;3.25;;;;;14.77;48.15;102005.50;4962970;28;45340;-60
2022/10/11 07:27:24;;;;;;;;;4.25;3.50;;;;;14.77;47.95;102004.63;4962962;28;45152;-59
2022/10/11 07:29:49;;;;;;;;;7.50;3.00;;;;;14.76;48.12;102000.22;4962703;28;45448;-60
2022/10/11 07:32:15;;;;;;;;;6.25;3.00;;;;;14.76;48.40;102008.16;4963010;28;45207;-60
2022/10/11 07:34:41;;;;;;;;;2.75;2.75;;;;;14.76;47.99;102008.16;4962955;28;45281;-60
2022/10/11 07:37:06;;;;;;;;;4.00;3.00;;;;;14.76;48.37;102013.44;4962702;28;45268;-60
2022/10/11 07:39:32;;;;;;;;;6.25;4.25;;;;;14.75;47.99;102007.28;4962714;28;47238;-60
2022/10/11 07:41:57;;;;;;;;;5.00;3.00;;;;;14.75;48.28;102017.88;4962873;28;45448;-60
2022/10/11 07:44:23;;;;;;;;;3.75;3.00;;;;;14.75;48.08;102016.97;4961956;28;45294;-59
2022/10/11 07:46:48;;;;;;;;;7.00;4.25;;;;;14.76;48.31;102024.03;4962725;28;45352;-60
2022/10/11 07:49:13;;;;;;;;;3.75;3.00;;;;;14.76;48.07;102024.03;4962568;28;46283;-60
2022/10/11 07:51:39;;;;;;;;;4.75;3.75;;;;;14.76;47.97;102024.03;4962744;28;45306;-60
2022/10/11 07:54:04;;;;;;;;;2.00;2.00;;;;;14.77;48.43;102025.78;4977667;28;45353;-60
2022/10/11 07:56:29;;;;;;;;;3.75;3.50;;;;;14.78;47.95;102025.75;4962583;28;45323;-60
2022/10/11 07:58:57;;;;;;;;;4.25;3.25;;;;;14.79;48.06;102029.28;4962336;28;45412;-60
2022/10/11 08:01:24;;;;;;;;;5.50;4.50;;;;;14.80;48.45;102025.75;4962564;28;45461;-61
2022/10/11 08:03:50;;;;;;;;;3.50;1.75;;;;;14.81;47.93;102027.50;4962567;28;45164;-60
2022/10/11 08:06:18;;;;;;;;;9.25;5.75;;;;;14.83;48.01;102030.13;4962172;28;45465;-60
2022/10/11 08:08:44;;;;;;;;;5.50;4.50;;;;;14.85;48.16;102034.50;4960900;28;45447;-60
2022/10/11 08:11:17;;;;;;;;;6.25;6.25;;;;;14.85;48.17;102033.63;4944752;28;45342;-60
2022/10/11 08:13:43;;;;;;;;;5.00;3.50;;;;;14.89;48.73;102033.59;4960764;28;45429;-60
2022/10/11 08:16:11;;;;;;;;;4.50;3.50;;;;;14.90;47.98;102039.75;4962368;28;45397;-60
2022/10/11 08:18:36;;;;;;;;;3.00;3.00;;;;;14.91;48.36;102034.44;4962174;28;46090;-60
2022/10/11 08:21:10;;;;;;;;;3.50;2.50;;;;;14.95;47.84;102033.53;4968799;28;45286;-60
2022/10/11 08:23:36;;;;;;;;;7.50;2.75;;;;;15.00;48.38;102044.03;4962332;28;45331;-61
2022/10/11 08:26:02;;;;;;;;;5.25;2.25;;;;;15.04;48.17;102043.13;4962035;28;45608;-65
2022/10/11 08:28:27;;;;;;;;;2.50;2.50;;;;;14.99;48.44;102028.19;4961706;28;46291;-61
2022/10/11 08:30:53;;;;;;;;;3.00;1.25;;;;;15.11;48.00;102041.28;4962134;28;45266;-61
2022/10/11 08:33:21;;;;;;;;;2.25;2.00;;;;;15.16;48.46;102052.69;4962180;28;45277;-60
2022/10/11 08:35:47;;;;;;;;;5.00;3.25;;;;;15.21;48.16;102049.97;4962180;28;45464;-61
2022/10/11 08:38:13;;;;;;;;;4.50;2.75;;;;;15.24;47.92;102047.28;4960440;28;45359;-60
2022/10/11 08:40:45;;;;;;;;;3.00;2.50;;;;;15.30;48.24;102048.97;4961839;28;45403;-61
2022/10/11 08:43:23;;;;;;;;;3.00;2.00;;;;;15.34;48.45;102054.19;4961761;28;45279;-60
2022/10/11 08:45:52;;;;;;;;;4.50;2.75;;;;;15.42;47.99;102051.44;4960557;28;45659;-61
2022/10/11 08:48:28;;;;;;;;;20.00;16.25;;;;;15.48;48.40;102045.19;4961508;28;46568;-60
2022/10/11 08:50:54;;;;;;;;;5.75;4.25;;;;;15.55;48.20;102055.69;4962060;28;45310;-60
2022/10/11 08:53:25;;;;;;;;;2.75;2.50;;;;;15.63;48.32;102046.75;4961684;28;45329;-61
2022/10/11 08:55:53;;;;;;;;;4.50;2.25;;;;;15.70;48.22;102059.03;4959275;28;45551;-61
2022/10/11 08:58:38;;;;;;;;;2.25;1.00;;;;;15.78;48.33;102051.81;4961374;28;46052;-61
2022/10/11 09:01:12;;;;;;;;;3.25;3.25;;;;;15.88;48.35;102060.53;4961438;28;45257;-60
2022/10/11 09:03:43;;;;;;;;;5.00;3.25;;;;;15.93;47.87;102048.97;4961690;28;45407;-61
2022/10/11 09:06:46;;;;;;;;;4.25;4.25;;;;;16.06;48.28;102054.97;4961162;28;45478;-60
2022/10/11 09:09:26;;;;;;;;;3.50;3.50;;;;;16.16;48.07;102054.78;4961106;28;46277;-60
2022/10/11 09:12:27;;;;;;;;;4.00;2.25;;;;;16.28;47.94;102059.91;4961520;28;45461;-62
2022/10/11 09:15:17;;;;;;;;;3.00;0.00;;;;;16.39;48.38;102051.75;4920674;28;45347;-60
2022/10/11 09:17:54;;;;;;;;;3.00;3.00;;;;;16.49;48.23;102045.38;4959414;28;45506;-61
2022/10/11 09:20:37;;;;;;;;;5.00;3.00;;;;;16.61;47.96;102048.72;4967028;28;46131;-61
2022/10/11 09:23:53;;;;;;;;;3.75;3.75;;;;;16.71;47.65;102044.97;4961300;28;45306;-61
2022/10/11 09:26:24;;;;;;;;;4.00;4.00;;;;;16.83;48.41;102046.50;4920577;28;45317;-61
2022/10/11 09:29:13;;;;;;;;;2.00;2.00;;;;;16.95;47.89;102040.13;4919845;28;45451;-61
2022/10/11 09:31:41;;;;;;;;;6.00;4.25;;;;;17.03;47.80;102046.13;4947143;28;45300;-61
2022/10/11 09:34:12;;;;;;;;;7.00;3.00;;;;;17.17;48.02;102041.44;4961146;28;45161;-61
2022/10/11 09:37:39;;;;;;;;;1.75;1.75;;;;;17.30;47.89;102041.16;4961056;28;45238;-61
2022/10/11 09:40:19;;;;;;;;;4.25;3.25;;;;;17.43;47.51;102047.06;4901165;29;45525;-61
2022/10/11 09:42:45;;;;;;;;;2.25;2.25;;;;;17.51;47.29;102039.81;4953894;28;45676;-61
2022/10/11 09:45:17;;;;;;;;;2.25;2.25;;;;;17.59;47.86;102036.97;4960741;28;45467;-61
2022/10/11 09:47:42;;;;;;;;;5.50;4.00;;;;;17.71;47.96;102036.69;4961226;28;45369;-61
2022/10/11 09:50:18;;;;;;;;;3.75;3.00;;;;;17.81;47.50;102037.34;4975854;28;45619;-60
2022/10/11 09:52:52;;;;;;;;;3.50;3.50;;;;;17.87;47.43;102035.41;4960908;28;47206;-61
2022/10/11 09:55:42;;;;;;;;;4.75;4.50;;;;;18.00;47.54;102037.81;4960769;28;45330;-60
2022/10/11 09:58:27;;;;;;;;;3.00;3.00;;;;;18.10;47.32;102039.31;4960814;28;45239;-60
2022/10/11 10:01:03;;;;;;;;;4.50;4.00;;;;;18.21;47.53;102040.84;4960843;28;45614;-60
2022/10/11 10:03:31;;;;;;;;;4.00;3.00;;;;;18.29;47.28;102029.09;4960479;28;47082;-60
2022/10/11 10:06:07;;;;;;;;;6.75;5.00;;;;;18.40;47.16;102028.81;4960328;28;45574;-60
2022/10/11 10:08:33;;;;;;;;;4.00;3.00;;;;;18.50;47.63;102024.97;4963800;28;45337;-60
2022/10/11 10:11:02;;;;;;;;;2.25;2.25;;;;;18.61;47.29;102030.00;4964080;28;45332;-60
2022/10/11 10:13:37;;;;;;;;;6.25;3.00;;;;;18.72;47.18;102028.84;4962402;28;48104;-60
2022/10/11 10:16:04;;;;;;;;;4.25;3.25;;;;;18.80;46.87;102029.50;4964120;28;45549;-60
2022/10/11 10:18:37;;;;;;;;;7.25;6.00;;;;;18.91;46.98;102031.88;4964095;28;45279;-60
2022/10/11 10:21:08;;;;;;;;;4.25;3.50;;;;;19.02;46.94;102032.44;4970629;28;45232;-61
2022/10/11 10:23:35;;;;;;;;;4.50;3.50;;;;;19.13;46.81;102040.09;4963640;28;46350;-60
2022/10/11 10:26:17;;;;;;;;;5.75;4.50;;;;;19.24;46.97;102039.78;4963974;28;45346;-60
2022/10/11 10:29:02;;;;;;;;;2.50;2.50;;;;;19.36;46.93;102035.88;4963599;28;45541;-60
2022/10/11 10:31:39;;;;;;;;;4.50;3.50;;;;;19.47;46.85;102034.63;4962566;28;45369;-60
2022/10/11 10:34:15;;;;;;;;;4.50;3.00;;;;;19.57;47.15;102027.22;4963819;28;45358;-60
2022/10/11 10:36:45;;;;;;;;;5.75;3.50;;;;;19.72;46.79;102032.97;4963585;28;45306;-59
2022/10/11 10:39:25;;;;;;;;;6.50;4.75;;;;;19.83;46.90;102028.22;4963910;28;45279;-59
2022/10/11 10:41:50;;;;;;;;;6.00;4.75;;;;;19.96;46.91;102029.56;4963525;28;45557;-59
2022/10/11 10:44:16;;;;;;;;;4.50;3.00;;;;;20.09;46.97;102019.34;4963124;28;46091;-60
2022/10/11 10:46:49;;;;;;;;;3.00;3.00;;;;;20.21;46.86;102025.16;4963560;28;45295;-59
2022/10/11 10:49:30;;;;;;;;;7.00;4.50;;;;;20.36;46.62;102013.94;4963643;28;45468;-59
2022/10/11 10:52:08;;;;;;;;;5.00;3.00;;;;;20.51;46.25;102019.69;4963619;28;45436;-59
2022/10/11 10:54:39;;;;;;;;;6.50;5.00;;;;;20.65;46.25;102012.03;4963253;28;46334;-59
2022/10/11 10:57:22;;;;;;;;;5.00;5.00;;;;;20.81;46.77;102019.53;4963486;28;45244;-59
2022/10/11 11:00:05;;;;;;;;;2.75;2.00;;;;;20.99;46.56;102015.28;4963333;28;45151;-59
2022/10/11 11:02:45;;;;;;;;;4.00;2.75;;;;;21.14;46.54;102011.16;4963258;28;45362;-59
2022/10/11 11:05:22;;;;;;;;;4.25;3.75;;;;;21.31;46.01;102016.72;4963131;28;46552;-61
2022/10/11 11:07:54;;;;;;;;;3.00;2.50;;;;;21.46;45.94;102014.34;4962783;28;45476;-59
2022/10/11 11:10:24;;;;;;;;;47.25;36.00;;;;;21.60;46.00;102009.38;4963044;28;45296;-59
2022/10/11 11:12:52;;;;;;;;;52.25;42.75;;;;;21.80;45.74;102011.22;4963222;28;45342;-60
2022/10/11 11:15:51;;;;;;;;;4.00;3.75;;;;;21.90;45.71;101995.66;4962644;28;46218;-59
2022/10/11 11:18:25;;;;;;;;;5.50;4.25;;;;;22.17;46.13;102012.34;4949175;28;45216;-61
2022/10/11 11:20:57;;;;;;;;;4.00;3.25;;;;;22.37;45.52;102013.31;4969140;28;45379;-60
2022/10/11 11:23:35;;;;;;;;;4.50;3.00;;;;;22.55;45.30;102007.16;4962777;28;45378;-60
2022/10/11 11:26:15;;;;;;;;;6.50;4.00;;;;;22.77;45.67;102000.81;4962899;28;45339;-60
2022/10/11 11:29:04;;;;;;;;;4.50;4.50;;;;;22.99;45.68;101999.81;4962446;28;45501;-60
2022/10/11 11:31:38;;;;;;;;;5.00;4.50;;;;;23.23;45.55;102008.53;4962855;28;45272;-60
2022/10/11 11:34:14;;;;;;;;;4.75;2.75;;;;;23.45;45.78;102004.84;4963217;28;45168;-60
2022/10/11 11:36:48;;;;;;;;;6.00;4.00;;;;;23.72;45.53;101999.03;4962665;28;46198;-60